createdAt,value
2018-12-05T00:01:46.989Z,99.90
2018-12-05T00:04:15.920Z,99.90
2018-12-05T00:06:45.985Z,99.90
2018-12-05T00:09:14.969Z,99.90
2018-12-05T00:11:43.855Z,99.90
2018-12-05T00:16:41.490Z,99.90
2018-12-05T00:19:10.407Z,99.90
2018-12-05T00:21:39.316Z,99.90
2018-12-05T00:24:08.984Z,99.90
2018-12-05T00:26:38.046Z,99.90
2018-12-05T00:29:06.982Z,99.90
2018-12-05T00:31:35.904Z,99.90
2018-12-05T00:34:04.959Z,99.90
2018-12-05T00:36:33.854Z,99.90
2018-12-05T00:39:02.958Z,99.90
2018-12-05T00:41:31.868Z,99.90
2018-12-05T00:44:00.787Z,99.90
2018-12-05T00:46:29.806Z,99.90
2018-12-05T00:48:58.745Z,99.90
2018-12-05T00:51:27.688Z,99.90
2018-12-05T00:53:56.598Z,99.90
2018-12-05T00:56:25.552Z,99.90
2018-12-05T00:58:54.499Z,99.90
2018-12-05T01:01:24.762Z,99.90
2018-12-05T01:03:53.671Z,99.90
2018-12-05T01:08:51.134Z,99.90
2018-12-05T01:11:20.076Z,99.90
2018-12-05T01:13:49.053Z,99.90
2018-12-05T01:16:18.147Z,99.90
2018-12-05T01:18:47.042Z,99.90
2018-12-05T01:21:15.910Z,99.90
2018-12-05T01:23:46.082Z,99.90
2018-12-05T01:26:15.052Z,99.90
2018-12-05T01:28:43.999Z,99.90
2018-12-05T01:31:12.949Z,99.90
2018-12-05T01:36:10.501Z,99.90
2018-12-05T01:38:39.472Z,99.90
2018-12-05T01:41:09.559Z,99.90
2018-12-05T01:43:49.997Z,99.90
2018-12-05T01:46:18.966Z,99.90
2018-12-05T01:48:47.945Z,99.90
2018-12-05T01:56:14.032Z,99.90
2018-12-05T01:58:43.037Z,99.90
2018-12-05T02:01:12.044Z,99.90
2018-12-05T02:06:09.541Z,99.90
2018-12-05T02:08:38.462Z,99.90
2018-12-05T02:13:36.041Z,99.90
2018-12-05T02:18:33.523Z,99.90
2018-12-05T02:21:02.396Z,99.90
2018-12-05T02:23:31.359Z,99.90
2018-12-05T02:26:00.313Z,99.90
2018-12-05T02:30:57.832Z,99.90
2018-12-05T02:33:26.803Z,99.90
2018-12-05T02:35:55.791Z,99.90
2018-12-05T02:40:53.571Z,99.90
2018-12-05T02:43:22.462Z,99.90
2018-12-05T02:45:51.361Z,99.90
2018-12-05T02:53:17.317Z,99.90
2018-12-05T02:55:46.300Z,99.90
2018-12-05T02:58:15.308Z,99.90
2018-12-05T03:00:44.240Z,99.90
2018-12-05T03:03:13.222Z,99.90
2018-12-05T03:05:42.171Z,99.90
2018-12-05T03:08:11.082Z,99.90
2018-12-05T03:13:08.687Z,99.90
2018-12-05T03:15:37.615Z,99.90
2018-12-05T03:18:06.619Z,99.90
2018-12-05T03:23:04.123Z,99.90
2018-12-05T03:25:33.062Z,99.90
2018-12-05T03:28:02.053Z,99.90
2018-12-05T03:30:30.981Z,99.90
2018-12-05T03:32:59.957Z,99.90
2018-12-05T03:35:34.289Z,99.90
2018-12-05T03:38:03.272Z,99.90
2018-12-05T03:40:32.628Z,99.90
2018-12-05T03:43:01.588Z,99.90
2018-12-05T03:45:31.768Z,99.90
2018-12-05T03:48:00.834Z,99.90
2018-12-05T03:50:29.742Z,99.90
2018-12-05T03:52:58.639Z,99.90
2018-12-05T03:55:27.585Z,99.90
2018-12-05T03:57:56.553Z,99.90
2018-12-05T04:00:25.471Z,99.90
2018-12-05T04:02:54.402Z,99.90
2018-12-05T04:05:23.385Z,99.90
2018-12-05T04:07:52.260Z,99.90
2018-12-05T04:10:21.222Z,99.90
2018-12-05T04:12:50.181Z,99.90
2018-12-05T04:15:19.203Z,99.90
2018-12-05T04:17:48.174Z,99.90
2018-12-05T04:22:47.144Z,99.90
2018-12-05T04:25:16.433Z,99.90
2018-12-05T04:27:45.432Z,99.90
2018-12-05T04:30:14.389Z,99.90
2018-12-05T04:32:45.595Z,99.90
2018-12-05T04:37:43.392Z,99.90
2018-12-05T04:40:13.420Z,99.90
2018-12-05T04:45:11.455Z,99.90
2018-12-05T04:50:10.149Z,99.90
2018-12-05T04:52:39.128Z,99.90
2018-12-05T04:55:08.261Z,99.90
2018-12-05T04:57:37.240Z,99.90
2018-12-05T05:00:07.276Z,99.90
2018-12-05T05:02:36.306Z,99.90
2018-12-05T05:05:05.550Z,99.90
2018-12-05T05:07:34.488Z,99.90
2018-12-05T05:10:03.512Z,99.90
2018-12-05T05:12:32.396Z,99.90
2018-12-05T05:15:01.458Z,99.90
2018-12-05T05:27:24.744Z,99.90
2018-12-05T05:29:53.732Z,99.90
2018-12-05T05:32:22.650Z,99.90
2018-12-05T05:37:20.206Z,99.90
2018-12-05T05:39:49.229Z,99.90
2018-12-05T05:42:18.218Z,99.90
2018-12-05T05:44:47.184Z,99.90
2018-12-05T05:47:16.158Z,99.90
2018-12-05T05:49:45.073Z,99.90
2018-12-05T05:52:14.202Z,99.90
2018-12-05T05:59:40.343Z,99.90
2018-12-05T06:02:09.325Z,99.90
2018-12-05T06:04:38.266Z,99.90
2018-12-05T06:09:35.730Z,99.90
2018-12-05T06:12:04.647Z,99.90
2018-12-05T06:14:33.525Z,99.90
2018-12-05T06:17:02.511Z,99.90
2018-12-05T06:19:31.570Z,99.90
2018-12-05T06:22:00.563Z,99.90
2018-12-05T06:24:30.874Z,99.90
2018-12-05T06:29:28.566Z,99.90
2018-12-05T06:31:57.570Z,99.90
2018-12-05T06:34:26.450Z,99.90
2018-12-05T06:36:55.375Z,99.90
2018-12-05T06:41:52.978Z,99.90
2018-12-05T06:44:21.912Z,99.90
2018-12-05T06:46:50.861Z,99.90
2018-12-05T06:54:17.037Z,99.90
2018-12-05T06:56:46.262Z,99.90
2018-12-05T06:59:15.213Z,99.90
2018-12-05T07:01:44.110Z,99.90
2018-12-05T07:04:13.034Z,99.90
2018-12-05T07:06:41.979Z,99.90
2018-12-05T07:09:10.875Z,99.90
2018-12-05T07:11:39.840Z,99.90
2018-12-05T07:14:08.791Z,99.90
2018-12-05T07:16:37.720Z,99.90
2018-12-05T07:19:06.710Z,99.90
2018-12-05T07:21:35.595Z,99.90
2018-12-05T07:24:04.561Z,99.90
2018-12-05T07:26:33.548Z,99.90
2018-12-05T07:29:02.620Z,99.90
2018-12-05T07:31:31.556Z,99.90
2018-12-05T07:36:29.007Z,99.90
2018-12-05T07:38:57.913Z,99.90
2018-12-05T07:41:26.813Z,99.90
2018-12-05T07:43:55.820Z,99.90
2018-12-05T07:46:24.783Z,99.90
2018-12-05T07:48:53.769Z,99.90
2018-12-05T07:51:22.713Z,99.90
2018-12-05T07:53:51.588Z,99.90
2018-12-05T07:56:20.598Z,99.90
2018-12-05T08:01:18.188Z,99.90
2018-12-05T08:03:47.034Z,99.90
2018-12-05T08:06:15.983Z,99.90
2018-12-05T08:11:14.982Z,99.90
2018-12-05T08:13:43.897Z,99.90
2018-12-05T08:16:12.872Z,99.90
2018-12-05T08:18:41.857Z,99.90
2018-12-05T08:21:10.837Z,99.90
2018-12-05T08:23:39.765Z,99.90
2018-12-05T08:26:08.693Z,99.90
2018-12-05T08:28:37.558Z,99.90
2018-12-05T08:31:07.669Z,99.90
2018-12-05T08:33:36.932Z,99.90
2018-12-05T08:36:07.143Z,99.90
2018-12-05T08:38:36.958Z,99.90
2018-12-05T08:41:07.513Z,99.90
2018-12-05T08:43:44.906Z,99.90
2018-12-05T08:46:15.683Z,99.90
2018-12-05T08:48:46.968Z,99.90
2018-12-05T08:51:22.795Z,99.90
2018-12-05T08:53:51.847Z,99.90
2018-12-05T08:56:20.817Z,99.90
2018-12-05T08:58:49.917Z,99.90
2018-12-05T09:01:18.911Z,99.90
2018-12-05T09:03:47.967Z,99.90
2018-12-05T09:06:18.053Z,99.90
2018-12-05T09:08:47.125Z,99.90
2018-12-05T09:11:16.505Z,99.90
2018-12-05T09:13:47.118Z,99.90
2018-12-05T09:16:16.185Z,99.90
2018-12-05T09:18:45.369Z,99.90
2018-12-05T09:21:14.291Z,99.90
2018-12-05T09:23:43.427Z,99.90
2018-12-05T09:26:12.557Z,99.90
2018-12-05T09:28:41.575Z,99.90
2018-12-05T09:31:10.669Z,99.90
2018-12-05T09:33:39.796Z,99.90
2018-12-05T09:36:08.766Z,99.90
2018-12-05T09:38:37.769Z,99.90
2018-12-05T09:41:06.747Z,99.90
2018-12-05T09:43:37.180Z,99.90
2018-12-05T09:46:06.381Z,99.90
2018-12-05T09:48:35.471Z,99.90
2018-12-05T09:51:05.612Z,99.90
2018-12-05T09:53:34.527Z,99.90
2018-12-05T09:56:03.520Z,99.90
2018-12-05T09:58:32.462Z,99.90
2018-12-05T10:01:01.380Z,99.90
2018-12-05T10:03:30.346Z,99.90
2018-12-05T10:05:59.285Z,99.90
2018-12-05T10:08:28.312Z,99.90
2018-12-05T10:13:25.723Z,99.90
2018-12-05T10:15:54.727Z,99.90
2018-12-05T10:18:23.759Z,99.90
2018-12-05T10:20:55.918Z,99.90
2018-12-05T10:23:23.649Z,99.90
2018-12-05T10:25:52.550Z,99.90
2018-12-05T10:28:21.464Z,99.90
2018-12-05T10:30:50.361Z,99.90
2018-12-05T10:33:19.246Z,99.90
2018-12-05T10:35:48.134Z,99.90
2018-12-05T10:38:17.052Z,99.90
2018-12-05T10:43:14.804Z,99.90
2018-12-05T10:45:43.730Z,99.90
2018-12-05T10:48:12.595Z,99.90
2018-12-05T10:50:41.610Z,99.90
2018-12-05T10:53:10.610Z,99.90
2018-12-05T10:55:39.525Z,99.90
2018-12-05T10:58:08.527Z,99.90
2018-12-05T11:00:43.062Z,99.80
2018-12-05T11:03:14.262Z,99.90
2018-12-05T11:05:48.735Z,99.90
2018-12-05T11:08:22.018Z,99.80
2018-12-05T11:10:56.379Z,99.60
2018-12-05T11:13:30.803Z,99.90
2018-12-05T11:16:05.200Z,99.90
2018-12-05T11:18:39.805Z,99.90
2018-12-05T11:21:14.041Z,99.90
2018-12-05T11:23:48.478Z,99.90
2018-12-05T11:26:20.842Z,99.90
2018-12-05T11:28:49.792Z,99.90
2018-12-05T11:31:18.781Z,99.90
2018-12-05T11:33:47.724Z,99.90
2018-12-05T11:36:22.478Z,99.90
2018-12-05T11:38:52.290Z,99.90
2018-12-05T11:41:21.307Z,99.90
2018-12-05T11:43:50.271Z,99.90
2018-12-05T11:46:19.345Z,99.90
2018-12-05T11:48:48.256Z,99.90
2018-12-05T11:51:17.264Z,99.90
2018-12-05T11:53:46.348Z,99.90
2018-12-05T11:56:15.411Z,99.90
2018-12-05T11:58:45.066Z,99.90
2018-12-05T12:01:13.946Z,99.90
2018-12-05T12:03:42.873Z,99.90
2018-12-05T12:06:13.895Z,99.90
2018-12-05T12:08:42.977Z,99.90
2018-12-05T12:11:11.962Z,99.90
2018-12-05T12:13:40.992Z,99.90
2018-12-05T12:16:09.944Z,99.90
2018-12-05T12:18:38.939Z,99.90
2018-12-05T12:21:07.966Z,99.90
2018-12-05T12:23:36.883Z,99.90
2018-12-05T12:26:05.923Z,99.90
2018-12-05T12:28:34.877Z,99.90
2018-12-05T12:31:04.754Z,99.90
2018-12-05T12:33:33.835Z,99.90
2018-12-05T12:36:02.796Z,99.90
2018-12-05T12:38:31.749Z,99.90
2018-12-05T12:41:00.747Z,99.90
2018-12-05T12:43:29.839Z,99.90
2018-12-05T12:45:58.933Z,99.90
2018-12-05T12:48:27.929Z,99.90
2018-12-05T12:50:56.824Z,99.90
2018-12-05T12:53:25.740Z,99.90
2018-12-05T12:55:54.714Z,99.90
2018-12-05T12:58:24.242Z,99.90
2018-12-05T13:00:53.248Z,99.90
2018-12-05T13:03:22.419Z,99.90
2018-12-05T13:05:51.438Z,99.90
2018-12-05T13:08:20.444Z,99.90
2018-12-05T13:10:49.675Z,99.90
2018-12-05T13:13:19.916Z,99.90
2018-12-05T13:15:49.720Z,99.90
2018-12-05T13:18:19.772Z,99.90
2018-12-05T13:20:48.987Z,99.90
2018-12-05T13:23:18.075Z,99.90
2018-12-05T13:25:46.986Z,99.90
2018-12-05T13:28:15.945Z,99.90
2018-12-05T13:30:44.948Z,99.90
2018-12-05T13:33:13.941Z,99.90
2018-12-05T13:35:42.957Z,99.90
2018-12-05T13:38:11.914Z,99.90
2018-12-05T13:40:40.911Z,99.90
2018-12-05T13:45:38.445Z,99.90
2018-12-05T13:48:07.367Z,99.90
2018-12-05T13:50:36.342Z,99.90
2018-12-05T13:53:05.324Z,99.90
2018-12-05T13:55:34.280Z,99.90
2018-12-05T13:58:03.208Z,99.90
2018-12-05T14:00:32.180Z,99.90
2018-12-05T14:03:01.142Z,99.90
2018-12-05T14:05:30.079Z,99.90
2018-12-05T14:07:59.011Z,99.90
2018-12-05T14:10:27.961Z,99.90
2018-12-05T14:12:58.919Z,99.90
2018-12-05T14:15:28.179Z,99.90
2018-12-05T14:18:01.561Z,99.90
2018-12-05T14:20:28.049Z,99.90
2018-12-05T14:22:57.059Z,99.90
2018-12-05T14:25:25.937Z,99.90
2018-12-05T14:27:54.909Z,99.90
2018-12-05T14:30:23.802Z,99.90
2018-12-05T14:32:52.800Z,99.90
2018-12-05T14:35:21.760Z,99.90
2018-12-05T14:37:52.558Z,99.90
2018-12-05T14:43:40.268Z,99.90
2018-12-05T14:46:09.220Z,99.90
2018-12-05T14:51:06.702Z,99.90
2018-12-05T14:53:35.737Z,99.90
2018-12-05T14:56:04.664Z,99.90
2018-12-05T14:58:33.583Z,99.90
2018-12-05T15:01:03.213Z,99.90
2018-12-05T15:03:32.563Z,99.90
2018-12-05T15:06:01.491Z,99.90
2018-12-05T15:08:30.455Z,99.90
2018-12-05T15:10:59.400Z,99.90
2018-12-05T15:13:28.371Z,99.90
2018-12-05T15:16:02.034Z,99.90
2018-12-05T15:18:30.916Z,99.90
2018-12-05T15:20:59.845Z,99.90
2018-12-05T15:23:28.782Z,99.90
2018-12-05T15:25:57.928Z,99.90
2018-12-05T15:28:26.922Z,99.90
2018-12-05T15:30:55.828Z,99.90
2018-12-05T15:33:24.792Z,99.90
2018-12-05T15:35:53.706Z,99.90
2018-12-05T15:38:22.596Z,99.90
2018-12-05T15:40:51.574Z,99.90
2018-12-05T15:43:20.540Z,99.90
2018-12-05T15:45:49.536Z,99.90
2018-12-05T15:50:47.816Z,99.90
2018-12-05T15:53:17.232Z,99.90
2018-12-05T15:55:46.374Z,99.90
2018-12-05T15:58:15.453Z,99.90
2018-12-05T16:00:44.582Z,99.90
2018-12-05T16:03:13.835Z,99.90
2018-12-05T16:05:43.531Z,99.90
2018-12-05T16:08:12.494Z,99.90
2018-12-05T16:10:41.506Z,99.90
2018-12-05T16:13:10.680Z,99.90
2018-12-05T16:15:39.971Z,99.90
2018-12-05T16:18:08.851Z,99.90
2018-12-05T16:20:38.808Z,99.90
2018-12-05T16:23:08.451Z,99.90
2018-12-05T16:25:37.343Z,99.90
2018-12-05T16:28:06.297Z,99.90
2018-12-05T16:30:35.297Z,99.90
2018-12-05T16:33:04.269Z,99.90
2018-12-05T16:35:33.270Z,99.90
2018-12-05T16:38:03.672Z,99.90
2018-12-05T16:40:32.652Z,99.90
2018-12-05T16:43:01.530Z,99.90
2018-12-05T16:45:30.418Z,99.90
2018-12-05T16:47:59.369Z,99.90
2018-12-05T16:50:28.252Z,99.90
2018-12-05T16:52:57.367Z,99.90
2018-12-05T16:57:54.976Z,99.90
2018-12-05T17:00:24.030Z,99.90
2018-12-05T17:02:54.092Z,99.90
2018-12-05T17:05:23.102Z,99.90
2018-12-05T17:07:52.061Z,99.90
2018-12-05T17:10:20.965Z,99.90
2018-12-05T17:12:49.895Z,99.90
2018-12-05T17:15:18.846Z,99.90
2018-12-05T17:17:50.651Z,99.90
2018-12-05T17:20:19.849Z,99.90
2018-12-05T17:22:48.879Z,99.90
2018-12-05T17:25:17.842Z,99.90
2018-12-05T17:27:46.874Z,99.90
2018-12-05T17:30:15.891Z,99.90
2018-12-05T17:35:13.633Z,99.90
2018-12-05T17:37:43.054Z,99.90
2018-12-05T17:40:12.355Z,99.90
2018-12-05T17:42:41.385Z,99.90
2018-12-05T17:45:10.506Z,99.90
2018-12-05T17:47:39.452Z,99.90
2018-12-05T17:50:08.966Z,99.90
2018-12-05T17:52:38.165Z,99.90
2018-12-05T17:55:08.411Z,99.90
2018-12-05T17:57:38.011Z,99.90
2018-12-05T18:02:36.897Z,99.90
2018-12-05T18:05:06.252Z,99.90
2018-12-05T18:07:35.733Z,99.90
2018-12-05T18:10:05.370Z,99.90
2018-12-05T18:12:34.410Z,99.90
2018-12-05T18:15:03.919Z,99.90
2018-12-05T18:17:33.521Z,99.90
2018-12-05T18:22:31.409Z,99.90
2018-12-05T18:25:00.746Z,99.90
2018-12-05T18:27:29.725Z,99.90
2018-12-05T18:29:58.617Z,99.90
2018-12-05T18:32:27.628Z,99.90
2018-12-05T18:34:56.522Z,99.90
2018-12-05T18:37:25.822Z,99.90
2018-12-05T18:39:55.515Z,99.90
2018-12-05T18:42:24.887Z,99.90
2018-12-05T18:47:23.122Z,99.90
2018-12-05T18:49:52.024Z,99.90
2018-12-05T18:52:21.296Z,99.90
2018-12-05T18:54:50.266Z,99.90
2018-12-05T18:59:47.828Z,99.90
2018-12-05T19:02:16.789Z,99.90
2018-12-05T19:04:45.880Z,99.90
2018-12-05T19:09:43.498Z,99.90
2018-12-05T19:12:12.709Z,99.90
2018-12-05T19:14:46.328Z,99.70
2018-12-05T19:17:15.376Z,99.90
2018-12-05T19:19:44.283Z,99.80
2018-12-05T19:22:13.247Z,99.70
2018-12-05T19:24:42.214Z,99.80
2018-12-05T19:27:11.207Z,99.80
2018-12-05T19:29:40.141Z,99.80
2018-12-05T19:32:09.146Z,99.90
2018-12-05T19:34:38.116Z,99.60
2018-12-05T19:37:07.222Z,99.80
2018-12-05T19:42:04.934Z,99.70
2018-12-05T19:44:41.057Z,99.70
2018-12-05T19:47:11.161Z,99.70
2018-12-05T19:49:40.085Z,99.70
2018-12-05T19:52:09.039Z,99.80
2018-12-05T19:54:38.005Z,99.80
2018-12-05T19:57:06.960Z,99.70
2018-12-05T19:59:35.900Z,99.70
2018-12-05T20:04:33.744Z,99.50
2018-12-05T20:07:02.705Z,99.70
2018-12-05T20:09:31.697Z,99.70
2018-12-05T20:12:00.640Z,99.70
2018-12-05T20:14:30.110Z,99.70
2018-12-05T20:16:59.115Z,99.50
2018-12-05T20:19:28.022Z,99.80
2018-12-05T20:21:56.975Z,99.70
2018-12-05T20:24:25.903Z,99.60
2018-12-05T20:26:54.833Z,99.70
2018-12-05T20:29:23.779Z,99.70
2018-12-05T20:31:52.661Z,99.70
2018-12-05T20:34:21.520Z,99.60
2018-12-05T20:36:50.408Z,99.60
2018-12-05T20:39:25.725Z,99.40
2018-12-05T20:41:55.331Z,99.40
2018-12-05T20:44:24.277Z,99.50
2018-12-05T20:46:53.200Z,99.30
2018-12-05T20:49:22.190Z,99.20
2018-12-05T20:51:51.188Z,99.30
2018-12-05T20:54:20.176Z,99.40
2018-12-05T20:59:17.768Z,99.40
2018-12-05T21:01:46.688Z,99.40
2018-12-05T21:04:18.583Z,99.30
2018-12-05T21:06:47.509Z,99.50
2018-12-05T21:09:16.425Z,99.40
2018-12-05T21:11:45.372Z,99.40
2018-12-05T21:14:14.328Z,99.30
2018-12-05T21:16:43.535Z,99.30
2018-12-05T21:19:12.471Z,99.40
2018-12-05T21:21:41.466Z,99.50
2018-12-05T21:24:10.469Z,99.30
2018-12-05T21:29:08.015Z,99.50
2018-12-05T21:31:36.889Z,99.30
2018-12-05T21:34:05.959Z,99.20
2018-12-05T21:36:34.890Z,99.40
2018-12-05T21:41:35.345Z,99.10
2018-12-05T21:44:04.385Z,99.20
2018-12-05T21:46:33.380Z,99.10
2018-12-05T21:49:02.290Z,99.10
2018-12-05T21:51:31.261Z,99.10
2018-12-05T21:54:00.291Z,99.30
2018-12-05T21:56:29.159Z,99.10
2018-12-05T21:58:58.149Z,99.20
2018-12-05T22:01:27.089Z,99.20
2018-12-05T22:03:56.394Z,98.80
2018-12-05T22:08:53.900Z,99.00
2018-12-05T22:11:22.869Z,99.00
2018-12-05T22:13:51.836Z,99.00
2018-12-05T22:16:20.827Z,99.00
2018-12-05T22:18:49.694Z,98.80
2018-12-05T22:21:18.600Z,99.00
2018-12-05T22:23:47.484Z,98.70
2018-12-05T22:26:16.484Z,98.90
2018-12-05T22:28:45.569Z,98.60
2018-12-05T22:31:14.643Z,98.70
2018-12-05T22:33:43.588Z,98.50
2018-12-05T22:36:12.531Z,98.80
2018-12-05T22:38:41.449Z,98.60
2018-12-05T22:41:10.419Z,98.50
2018-12-05T22:43:39.375Z,98.80
2018-12-05T22:46:08.278Z,98.40
2018-12-05T22:48:37.208Z,98.50
2018-12-05T22:51:06.106Z,98.60
2018-12-05T22:53:35.031Z,98.50
2018-12-05T22:58:32.685Z,98.70
2018-12-05T23:01:01.658Z,98.40
2018-12-05T23:06:01.235Z,98.60
2018-12-05T23:08:30.231Z,98.80
2018-12-05T23:13:27.762Z,98.30
2018-12-05T23:18:25.400Z,98.50
2018-12-05T23:20:54.354Z,98.50
2018-12-05T23:23:24.754Z,98.60
2018-12-05T23:25:53.768Z,98.60
2018-12-05T23:28:22.918Z,98.60
2018-12-05T23:30:51.963Z,98.50
2018-12-05T23:33:20.944Z,98.40
2018-12-05T23:35:49.971Z,98.40
2018-12-05T23:38:19.006Z,98.50
2018-12-05T23:40:48.000Z,98.60
2018-12-05T23:43:16.916Z,98.50
2018-12-05T23:45:45.870Z,98.50
2018-12-05T23:48:14.810Z,98.40
2018-12-05T23:50:43.862Z,98.50
2018-12-05T23:53:12.824Z,98.50
2018-12-05T23:55:41.876Z,98.50
2018-12-05T23:58:10.787Z,98.50
